createdAt,value
2023-01-28T11:30:43.788Z,17.50
2023-01-28T11:33:17.644Z,17.90
2023-01-28T11:38:56.629Z,19.00
2023-01-28T11:41:32.315Z,13.80
2023-01-28T11:44:04.172Z,9.80
2023-01-28T11:46:41.648Z,8.00
2023-01-28T11:49:27.420Z,6.90
2023-01-28T11:52:13.176Z,6.30
2023-01-28T11:55:13.970Z,5.50
2023-01-28T11:57:43.528Z,5.10
2023-01-28T12:00:11.537Z,4.80
2023-01-28T12:02:59.493Z,4.80
2023-01-28T12:05:46.376Z,4.60
2023-01-28T12:08:56.455Z,4.50
2023-01-28T12:12:10.735Z,4.60
2023-01-28T12:15:02.300Z,4.60
2023-01-28T12:17:31.792Z,4.60
2023-01-28T12:20:27.151Z,4.50
2023-01-28T12:23:22.835Z,4.40
2023-01-28T12:26:16.734Z,4.30
2023-01-28T12:28:49.420Z,4.30
2023-01-28T12:31:37.931Z,4.30
2023-01-28T12:34:29.187Z,4.30
2023-01-28T12:37:04.698Z,4.20
2023-01-28T12:40:03.264Z,4.20
2023-01-28T12:42:32.770Z,4.10
2023-01-28T12:45:37.374Z,4.10
2023-01-28T12:48:32.169Z,4.10
2023-01-28T12:51:18.129Z,4.00
2023-01-28T12:53:55.822Z,4.00
2023-01-28T12:56:37.573Z,4.00
2023-01-28T12:59:21.202Z,3.90
2023-01-28T13:01:57.558Z,4.00
2023-01-28T13:04:31.950Z,3.80
2023-01-28T13:07:10.947Z,3.90
2023-01-28T13:09:49.509Z,3.90
2023-01-28T13:12:17.216Z,3.90
2023-01-28T13:14:44.839Z,3.90
2023-01-28T13:17:24.543Z,4.00
2023-01-28T13:19:51.517Z,4.00
2023-01-28T13:22:27.304Z,4.10
2023-01-28T13:24:54.597Z,4.00
2023-01-28T13:27:27.478Z,4.10
2023-01-28T13:30:07.304Z,4.10
2023-01-28T13:32:35.985Z,4.00
2023-01-28T13:35:06.638Z,3.90
2023-01-28T13:37:38.449Z,3.90
2023-01-28T13:40:14.183Z,4.00
2023-01-28T13:42:41.869Z,4.00
2023-01-28T13:45:17.125Z,4.10
2023-01-28T13:47:47.260Z,4.10
2023-01-28T13:50:20.507Z,4.00
2023-01-28T13:53:19.172Z,3.90
2023-01-28T13:55:47.662Z,3.70
2023-01-28T13:58:25.465Z,3.60
2023-01-28T14:01:49.077Z,3.60
2023-01-28T14:04:53.273Z,3.80
2023-01-28T14:07:54.954Z,3.90
2023-01-28T14:11:15.137Z,3.90
2023-01-28T14:14:00.646Z,3.80
2023-01-28T14:17:14.714Z,4.00
2023-01-28T14:19:44.561Z,4.00
2023-01-28T14:22:19.147Z,4.00
2023-01-28T14:24:47.376Z,3.90
2023-01-28T14:27:20.246Z,3.80
2023-01-28T14:30:14.591Z,3.80
2023-01-28T14:32:47.804Z,3.60
2023-01-28T14:35:20.824Z,3.70
2023-01-28T14:37:47.792Z,3.60
2023-01-28T14:40:17.151Z,3.60
2023-01-28T14:42:47.219Z,3.50
2023-01-28T14:45:20.210Z,3.50
2023-01-28T14:48:15.207Z,3.60
2023-01-28T14:50:58.133Z,3.60
2023-01-28T14:53:40.029Z,3.50
2023-01-28T14:56:24.746Z,3.40
2023-01-28T14:59:04.749Z,3.50
2023-01-28T15:01:32.168Z,3.50
2023-01-28T15:03:59.172Z,3.50
2023-01-28T15:06:34.232Z,3.40
2023-01-28T15:09:09.200Z,3.40
2023-01-28T15:11:40.255Z,3.30
2023-01-28T15:14:19.769Z,3.30
2023-01-28T15:16:50.488Z,3.20
2023-01-28T15:19:24.325Z,3.20
2023-01-28T15:21:59.398Z,3.20
2023-01-28T15:24:26.586Z,3.30
2023-01-28T15:26:53.755Z,3.20
2023-01-28T15:29:31.489Z,3.20
2023-01-28T15:31:59.060Z,3.10
2023-01-28T15:34:32.155Z,3.10
2023-01-28T15:37:02.087Z,3.00
2023-01-28T15:39:32.637Z,3.00
2023-01-28T15:42:03.104Z,3.00
2023-01-28T15:44:33.427Z,3.00
2023-01-28T15:47:01.851Z,2.90
2023-01-28T15:49:37.741Z,3.00
2023-01-28T15:52:04.509Z,3.00
2023-01-28T15:54:31.747Z,2.90
2023-01-28T15:57:10.172Z,2.90
2023-01-28T15:59:36.885Z,2.90
2023-01-28T16:02:17.486Z,2.90
2023-01-28T16:04:55.317Z,2.80
2023-01-28T16:07:22.092Z,2.80
2023-01-28T16:09:53.426Z,2.90
2023-01-28T16:12:21.654Z,2.90
2023-01-28T16:15:07.323Z,3.00
2023-01-28T16:17:42.152Z,2.90
2023-01-28T16:20:21.824Z,2.80
2023-01-28T16:22:48.747Z,2.80
2023-01-28T16:25:21.336Z,2.90
2023-01-28T16:27:48.819Z,2.70
2023-01-28T16:30:16.602Z,2.70
2023-01-28T16:32:44.783Z,2.70
2023-01-28T16:35:20.091Z,2.60
2023-01-28T16:37:48.678Z,2.50
2023-01-28T16:40:18.738Z,2.60
2023-01-28T16:42:46.234Z,2.60
2023-01-28T16:45:29.048Z,2.60
2023-01-28T16:47:55.743Z,2.60
2023-01-28T16:50:22.922Z,2.60
2023-01-28T16:52:51.661Z,2.60
2023-01-28T16:55:20.713Z,2.60
2023-01-28T16:57:49.719Z,2.60
2023-01-28T17:00:36.615Z,2.60
2023-01-28T17:03:03.550Z,2.50
2023-01-28T17:05:30.323Z,2.50
2023-01-28T17:07:59.250Z,2.50
2023-01-28T17:10:26.115Z,2.50
2023-01-28T17:12:52.866Z,2.60
2023-01-28T17:15:20.153Z,2.60
2023-01-28T17:17:50.700Z,2.60
2023-01-28T17:20:17.626Z,2.50
2023-01-28T17:22:44.601Z,2.60
2023-01-28T17:25:11.483Z,2.60
2023-01-28T17:27:38.412Z,2.60
2023-01-28T17:30:08.060Z,2.50
2023-01-28T17:32:34.716Z,2.50
2023-01-28T17:35:01.480Z,2.50
2023-01-28T17:37:28.159Z,2.50
2023-01-28T17:39:54.906Z,2.50
2023-01-28T17:42:21.575Z,2.40
2023-01-28T17:44:48.363Z,2.40
2023-01-28T17:47:15.156Z,2.40
2023-01-28T17:49:41.981Z,2.20
2023-01-28T17:52:08.943Z,2.20
2023-01-28T17:54:36.213Z,2.30
2023-01-28T17:57:03.000Z,2.20
2023-01-28T17:59:29.764Z,2.10
2023-01-28T18:01:57.134Z,2.00
2023-01-28T18:04:25.188Z,2.00
2023-01-28T18:06:52.067Z,2.00
2023-01-28T18:09:18.995Z,1.80
2023-01-28T18:11:45.774Z,1.80
2023-01-28T18:14:12.502Z,1.90
2023-01-28T18:16:39.343Z,1.80
2023-01-28T18:19:06.537Z,1.80
2023-01-28T18:21:52.074Z,1.70
2023-01-28T18:24:20.042Z,1.60
2023-01-28T18:26:46.878Z,1.50
2023-01-28T18:29:16.876Z,1.50
2023-01-28T18:31:44.209Z,1.50
2023-01-28T18:34:10.969Z,1.40
2023-01-28T18:36:37.788Z,1.40
2023-01-28T18:39:04.626Z,1.30
2023-01-28T18:41:31.386Z,1.30
2023-01-28T18:43:58.202Z,1.30
2023-01-28T18:46:24.970Z,1.40
2023-01-28T18:48:51.765Z,1.30
2023-01-28T18:51:29.580Z,1.40
2023-01-28T18:53:59.946Z,1.40
2023-01-28T18:56:28.149Z,1.40
2023-01-28T18:58:56.662Z,1.50
2023-01-28T19:01:23.525Z,1.60
2023-01-28T19:03:50.560Z,1.60
2023-01-28T19:06:17.416Z,1.60
2023-01-28T19:08:44.317Z,1.60
2023-01-28T19:11:11.281Z,1.70
2023-01-28T19:13:38.137Z,1.60
2023-01-28T19:16:05.280Z,1.70
2023-01-28T19:18:31.953Z,1.60
2023-01-28T19:21:03.744Z,1.50
2023-01-28T19:23:40.961Z,1.60
2023-01-28T19:26:16.962Z,1.60
2023-01-28T19:28:43.695Z,1.60
2023-01-28T19:31:10.453Z,1.60
2023-01-28T19:33:39.662Z,1.60
2023-01-28T19:36:06.698Z,1.70
2023-01-28T19:38:33.413Z,1.70
2023-01-28T19:41:05.729Z,1.60
2023-01-28T19:43:33.936Z,1.60
2023-01-28T19:46:03.187Z,1.60
2023-01-28T19:48:31.123Z,1.50
2023-01-28T19:50:58.163Z,1.40
2023-01-28T19:53:25.116Z,1.30
2023-01-28T19:55:52.318Z,1.30
2023-01-28T19:58:19.210Z,1.30
2023-01-28T20:00:45.927Z,1.30
2023-01-28T20:03:12.866Z,1.30
2023-01-28T20:05:39.792Z,1.30
2023-01-28T20:08:06.614Z,1.30
2023-01-28T20:10:33.464Z,1.10
2023-01-28T20:13:00.266Z,1.20
2023-01-28T20:15:27.089Z,1.20
2023-01-28T20:17:54.363Z,1.10
2023-01-28T20:20:21.164Z,1.00
2023-01-28T20:22:47.894Z,1.10
2023-01-28T20:25:16.508Z,1.00
2023-01-28T20:27:43.462Z,0.90
2023-01-28T20:30:11.247Z,1.00
2023-01-28T20:32:37.993Z,0.90
2023-01-28T20:35:04.864Z,0.90
2023-01-28T20:37:31.579Z,0.90
2023-01-28T20:39:58.328Z,0.90
2023-01-28T20:42:25.005Z,1.00
2023-01-28T20:44:51.662Z,0.90
2023-01-28T20:47:18.405Z,0.90
2023-01-28T20:49:45.150Z,0.90
2023-01-28T20:52:11.956Z,1.00
2023-01-28T20:54:38.710Z,0.90
2023-01-28T20:57:05.483Z,0.90
2023-01-28T20:59:32.301Z,0.90
2023-01-28T21:02:00.614Z,0.80
2023-01-28T21:04:27.345Z,0.80
2023-01-28T21:06:54.066Z,0.80
2023-01-28T21:09:22.616Z,0.70
2023-01-28T21:11:49.382Z,0.60
2023-01-28T21:14:16.964Z,0.60
2023-01-28T21:16:44.696Z,0.60
2023-01-28T21:19:11.583Z,0.50
2023-01-28T21:21:38.301Z,0.60
2023-01-28T21:24:05.529Z,0.50
2023-01-28T21:26:32.513Z,0.50
2023-01-28T21:28:59.305Z,0.50
2023-01-28T21:31:26.918Z,0.50
2023-01-28T21:33:56.302Z,0.40
2023-01-28T21:36:24.046Z,0.40
2023-01-28T21:38:55.997Z,0.40
2023-01-28T21:41:23.068Z,0.40
2023-01-28T21:43:53.338Z,0.40
2023-01-28T21:46:24.764Z,0.40
2023-01-28T21:49:02.035Z,0.40
2023-01-28T21:51:35.622Z,0.40
2023-01-28T21:54:07.026Z,0.50
2023-01-28T21:56:33.889Z,0.60
2023-01-28T21:59:19.426Z,0.60
2023-01-28T22:01:46.672Z,0.70
2023-01-28T22:04:14.334Z,0.70
2023-01-28T22:06:42.572Z,0.70
2023-01-28T22:09:13.836Z,0.80
2023-01-28T22:11:42.358Z,0.70
2023-01-28T22:14:10.100Z,0.60
2023-01-28T22:16:37.102Z,0.60
2023-01-28T22:19:04.496Z,0.60
2023-01-28T22:21:31.355Z,0.60
2023-01-28T22:23:58.257Z,0.60
2023-01-28T22:26:25.080Z,0.50
2023-01-28T22:28:51.846Z,0.60
2023-01-28T22:31:18.651Z,0.50
2023-01-28T22:33:46.220Z,0.50
2023-01-28T22:36:15.852Z,0.50
2023-01-28T22:38:44.379Z,0.50
2023-01-28T22:41:19.243Z,0.50
2023-01-28T22:43:46.927Z,0.50
2023-01-28T22:46:14.401Z,0.60
2023-01-28T22:48:41.219Z,0.70
2023-01-28T22:51:14.587Z,0.70
2023-01-28T22:53:41.640Z,0.70
2023-01-28T22:56:08.622Z,0.70
2023-01-28T22:58:35.602Z,0.90
2023-01-28T23:01:02.430Z,0.90
2023-01-28T23:03:29.191Z,0.90
2023-01-28T23:06:04.479Z,0.90
2023-01-28T23:08:32.249Z,1.00
2023-01-28T23:11:01.805Z,1.00
2023-01-28T23:13:52.485Z,0.90
2023-01-28T23:16:38.012Z,0.80
2023-01-28T23:19:23.426Z,0.90
2023-01-28T23:22:25.767Z,0.80
2023-01-28T23:24:52.504Z,0.80
2023-01-28T23:27:19.224Z,0.80
2023-01-28T23:29:46.440Z,0.80
2023-01-28T23:32:13.522Z,0.80
2023-01-28T23:34:44.350Z,0.80
2023-01-28T23:37:15.477Z,0.90
2023-01-28T23:39:43.056Z,0.80
2023-01-28T23:42:17.992Z,0.90
2023-01-28T23:44:44.821Z,0.80
2023-01-28T23:47:11.664Z,0.90
2023-01-28T23:49:39.248Z,0.70
2023-01-28T23:52:07.034Z,0.70
2023-01-28T23:54:33.941Z,0.70
2023-01-28T23:57:01.452Z,0.70
2023-01-28T23:59:28.213Z,0.70
